Almont, North Dakota
Current Conditions -  °F | °C
As of 4:55 PM on Saturday 25 Oct 2014 (Local Time) from KD57 Reporting Station
Clear Clear  
Wind Chill: 61°   Ceiling: Unl
Heat Index: 61°   Visibility: 10mi
Dew Point: 30°   Wind: 8mph
Humidity: 31%   Direction: 120°ESE
Pressure: 30"   Gusts: 15mph
Location:  46.73°N, 101.5°W
Report Text: KD57 252255Z AUTO 12007G13KT 10SM CLR 16/M01 A3000 RMK AO2 TSNO
Loading
Personal Weather Stations






























Interactive Weather Map New forecast layout! Learn more

10-Day Weather Forecast

Advertisements
Track Severe Weather on mobile